createdAt,value
2019-02-14T00:02:06.146Z,8.90
2019-02-14T00:04:34.384Z,11.30
2019-02-14T00:07:02.323Z,12.10
2019-02-14T00:09:30.243Z,11.03
2019-02-14T00:11:58.408Z,10.32
2019-02-14T00:14:26.331Z,10.38
2019-02-14T00:16:54.659Z,10.13
2019-02-14T00:19:22.595Z,9.85
2019-02-14T00:21:50.508Z,10.32
2019-02-14T00:24:18.427Z,10.13
2019-02-14T00:26:46.351Z,9.25
2019-02-14T00:29:14.263Z,8.48
2019-02-14T00:31:42.182Z,8.50
2019-02-14T00:34:10.374Z,8.30
2019-02-14T00:36:38.298Z,8.38
2019-02-14T00:39:06.208Z,7.97
2019-02-14T00:41:35.748Z,7.80
2019-02-14T00:44:03.667Z,8.85
2019-02-14T00:46:32.079Z,8.60
2019-02-14T00:48:59.986Z,8.35
2019-02-14T00:51:28.875Z,8.83
2019-02-14T00:53:56.790Z,8.90
2019-02-14T00:56:25.099Z,9.13
2019-02-14T00:58:53.277Z,9.13
2019-02-14T01:01:21.199Z,8.60
2019-02-14T01:03:49.417Z,8.55
2019-02-14T01:06:17.335Z,7.90
2019-02-14T01:08:45.331Z,7.40
2019-02-14T01:11:14.311Z,8.05
2019-02-14T01:13:42.230Z,8.88
2019-02-14T01:16:10.140Z,8.93
2019-02-14T01:18:38.047Z,9.00
2019-02-14T01:21:06.043Z,9.23
2019-02-14T01:23:33.959Z,8.35
2019-02-14T01:26:02.315Z,7.80
2019-02-14T01:28:30.234Z,8.03
2019-02-14T01:30:58.157Z,7.55
2019-02-14T01:33:26.075Z,7.08
2019-02-14T01:35:53.987Z,6.90
2019-02-14T01:38:21.910Z,6.80
2019-02-14T01:40:49.827Z,6.37
2019-02-14T01:43:17.739Z,5.92
2019-02-14T01:45:45.659Z,5.40
2019-02-14T01:48:13.583Z,5.58
2019-02-14T01:50:41.504Z,6.33
2019-02-14T01:53:09.411Z,7.35
2019-02-14T01:55:37.784Z,7.37
2019-02-14T01:58:06.375Z,8.60
2019-02-14T02:00:34.295Z,8.08
2019-02-14T02:03:02.220Z,8.43
2019-02-14T02:05:30.161Z,8.28
2019-02-14T02:07:58.064Z,8.33
2019-02-14T02:10:25.988Z,7.33
2019-02-14T02:12:53.975Z,8.03
2019-02-14T02:15:21.883Z,6.75
2019-02-14T02:17:49.805Z,6.30
2019-02-14T02:20:17.719Z,6.40
2019-02-14T02:22:45.639Z,6.25
2019-02-14T02:25:13.555Z,6.70
2019-02-14T02:27:41.480Z,7.12
2019-02-14T02:30:11.156Z,7.03
2019-02-14T02:32:39.091Z,7.35
2019-02-14T02:35:07.373Z,6.75
2019-02-14T02:37:36.359Z,6.47
2019-02-14T02:40:05.919Z,6.78
2019-02-14T02:42:33.834Z,6.55
2019-02-14T02:45:02.065Z,6.75
2019-02-14T02:47:30.252Z,6.83
2019-02-14T02:49:58.420Z,6.60
2019-02-14T02:52:26.343Z,7.10
2019-02-14T02:54:54.272Z,7.40
2019-02-14T02:57:22.440Z,6.60
2019-02-14T02:59:50.355Z,7.15
2019-02-14T03:02:18.280Z,7.45
2019-02-14T03:04:46.564Z,7.30
2019-02-14T03:07:14.492Z,7.83
2019-02-14T03:09:42.403Z,8.05
2019-02-14T03:12:10.696Z,7.55
2019-02-14T03:14:38.619Z,7.90
2019-02-14T03:17:06.840Z,7.42
2019-02-14T03:19:34.839Z,7.22
2019-02-14T03:22:02.761Z,7.15
2019-02-14T03:24:30.713Z,7.65
2019-02-14T03:26:58.619Z,7.28
2019-02-14T03:29:26.532Z,6.62
2019-02-14T03:31:54.453Z,7.28
2019-02-14T03:34:22.363Z,7.15
2019-02-14T03:36:50.307Z,8.03
2019-02-14T03:39:18.224Z,7.50
2019-02-14T03:41:46.154Z,6.87
2019-02-14T03:44:14.067Z,6.42
2019-02-14T03:46:41.984Z,7.00
2019-02-14T03:49:09.903Z,6.60
2019-02-14T03:51:37.827Z,6.53
2019-02-14T03:54:05.739Z,7.28
2019-02-14T03:56:33.664Z,7.03
2019-02-14T03:59:01.641Z,7.25
2019-02-14T04:01:29.607Z,7.30
2019-02-14T04:03:57.529Z,6.90
2019-02-14T04:06:27.567Z,7.35
2019-02-14T04:08:55.067Z,7.53
2019-02-14T04:11:22.976Z,7.22
2019-02-14T04:13:50.902Z,7.10
2019-02-14T04:16:18.811Z,6.72
2019-02-14T04:18:47.710Z,6.97
2019-02-14T04:21:15.635Z,7.97
2019-02-14T04:23:43.551Z,7.95
2019-02-14T04:26:11.470Z,7.60
2019-02-14T04:28:39.467Z,7.20
2019-02-14T04:31:07.380Z,7.62
2019-02-14T04:33:35.295Z,7.85
2019-02-14T04:36:03.219Z,6.60
2019-02-14T04:38:31.135Z,7.17
2019-02-14T04:40:59.055Z,6.95
2019-02-14T04:43:27.943Z,6.97
2019-02-14T04:45:56.100Z,8.28
2019-02-14T04:48:24.018Z,7.62
2019-02-14T04:50:51.939Z,7.75
2019-02-14T04:53:19.863Z,7.62
2019-02-14T04:55:47.771Z,7.03
2019-02-14T04:58:15.694Z,7.22
2019-02-14T05:00:43.603Z,7.53
2019-02-14T05:03:11.525Z,8.13
2019-02-14T05:05:39.823Z,7.35
2019-02-14T05:08:07.996Z,7.58
2019-02-14T05:10:35.923Z,8.18
2019-02-14T05:13:03.859Z,7.05
2019-02-14T05:15:31.774Z,8.20
2019-02-14T05:17:59.997Z,7.83
2019-02-14T05:20:27.931Z,8.40
2019-02-14T05:22:56.151Z,8.25
2019-02-14T05:25:24.060Z,8.05
2019-02-14T05:27:52.303Z,8.35
2019-02-14T05:30:20.476Z,9.15
2019-02-14T05:32:48.397Z,7.40
2019-02-14T05:35:16.324Z,7.60
2019-02-14T05:37:44.243Z,7.42
2019-02-14T05:40:12.159Z,8.10
2019-02-14T05:42:40.085Z,7.83
2019-02-14T05:45:09.461Z,8.05
2019-02-14T05:47:37.616Z,7.92
2019-02-14T05:50:06.895Z,7.92
2019-02-14T05:52:35.055Z,8.03
2019-02-14T05:55:03.231Z,8.28
2019-02-14T05:57:31.155Z,9.50
2019-02-14T05:59:59.070Z,8.60
2019-02-14T06:02:26.991Z,8.93
2019-02-14T06:04:54.915Z,9.90
2019-02-14T06:07:22.832Z,9.20
2019-02-14T06:09:50.768Z,8.70
2019-02-14T06:12:18.676Z,8.73
2019-02-14T06:14:47.004Z,8.60
2019-02-14T06:17:15.011Z,9.23
2019-02-14T06:19:42.948Z,7.85
2019-02-14T06:22:10.922Z,8.73
2019-02-14T06:24:39.085Z,8.80
2019-02-14T06:27:07.014Z,8.40
2019-02-14T06:29:34.936Z,7.50
2019-02-14T06:32:02.859Z,8.78
2019-02-14T06:34:30.788Z,8.83
2019-02-14T06:36:58.722Z,8.35
2019-02-14T06:39:26.638Z,8.73
2019-02-14T06:41:54.563Z,10.30
2019-02-14T06:44:22.711Z,10.50
2019-02-14T06:46:50.632Z,10.45
2019-02-14T06:49:18.799Z,9.88
2019-02-14T06:51:46.724Z,11.12
2019-02-14T06:54:16.074Z,11.55
2019-02-14T06:56:43.987Z,11.38
2019-02-14T06:59:11.911Z,11.50
2019-02-14T07:01:40.101Z,11.15
2019-02-14T07:04:08.275Z,10.68
2019-02-14T07:06:37.263Z,11.45
2019-02-14T07:09:05.197Z,11.28
2019-02-14T07:11:33.677Z,12.47
2019-02-14T07:14:01.624Z,13.93
2019-02-14T07:16:30.516Z,13.38
2019-02-14T07:18:58.435Z,14.00
2019-02-14T07:21:26.363Z,12.30
2019-02-14T07:23:54.283Z,12.23
2019-02-14T07:26:22.207Z,11.38
2019-02-14T07:28:50.127Z,11.45
2019-02-14T07:31:18.055Z,11.25
2019-02-14T07:33:45.975Z,10.50
2019-02-14T07:36:13.899Z,10.53
2019-02-14T07:38:41.815Z,11.12
2019-02-14T07:41:09.743Z,9.25
2019-02-14T07:43:37.663Z,8.20
2019-02-14T07:46:05.571Z,7.95
2019-02-14T07:48:33.494Z,7.30
2019-02-14T07:51:01.404Z,7.28
2019-02-14T07:53:29.316Z,7.17
2019-02-14T07:55:57.246Z,7.12
2019-02-14T07:58:25.160Z,7.28
2019-02-14T08:00:53.507Z,7.72
2019-02-14T08:03:21.427Z,8.00
2019-02-14T08:05:49.357Z,10.30
2019-02-14T08:08:17.279Z,8.25
2019-02-14T08:10:45.495Z,8.30
2019-02-14T08:13:13.777Z,6.95
2019-02-14T08:15:41.699Z,7.83
2019-02-14T08:18:09.678Z,8.35
2019-02-14T08:20:37.603Z,10.35
2019-02-14T08:23:05.515Z,8.75
2019-02-14T08:25:33.439Z,8.75
2019-02-14T08:28:01.351Z,9.48
2019-02-14T08:30:30.251Z,9.30
2019-02-14T08:32:58.171Z,7.72
2019-02-14T08:35:26.360Z,8.13
2019-02-14T08:37:54.508Z,8.18
2019-02-14T08:40:32.639Z,7.65
2019-02-14T08:43:00.820Z,7.40
2019-02-14T08:45:28.741Z,6.78
2019-02-14T08:47:58.612Z,6.17
2019-02-14T08:50:26.527Z,5.67
2019-02-14T08:52:54.455Z,5.95
2019-02-14T08:55:22.635Z,7.30
2019-02-14T08:57:50.555Z,7.12
2019-02-14T09:00:18.479Z,8.70
2019-02-14T09:02:46.399Z,8.60
2019-02-14T09:05:14.308Z,8.78
2019-02-14T09:07:42.239Z,9.38
2019-02-14T09:10:11.327Z,8.83
2019-02-14T09:12:39.574Z,8.30
2019-02-14T09:15:08.984Z,9.08
2019-02-14T09:17:38.177Z,9.68
2019-02-14T09:20:08.204Z,9.48
2019-02-14T09:22:37.404Z,10.53
2019-02-14T09:25:05.796Z,9.40
2019-02-14T09:27:33.719Z,8.40
2019-02-14T09:30:01.639Z,8.10
2019-02-14T09:32:29.699Z,8.00
2019-02-14T09:34:57.616Z,7.97
2019-02-14T09:37:25.856Z,7.37
2019-02-14T09:39:53.776Z,8.28
2019-02-14T09:42:21.696Z,7.95
2019-02-14T09:44:49.611Z,7.58
2019-02-14T09:47:17.843Z,7.70
2019-02-14T09:49:45.768Z,8.83
2019-02-14T09:52:13.684Z,8.23
2019-02-14T09:54:41.603Z,7.62
2019-02-14T09:57:09.848Z,7.62
2019-02-14T09:59:37.784Z,8.15
2019-02-14T10:02:05.851Z,7.45
2019-02-14T10:04:33.778Z,7.85
2019-02-14T10:07:01.716Z,7.50
2019-02-14T10:09:29.634Z,8.03
2019-02-14T10:11:57.596Z,6.95
2019-02-14T10:14:25.657Z,7.85
2019-02-14T10:16:53.567Z,7.60
2019-02-14T10:19:23.283Z,7.60
2019-02-14T10:21:51.373Z,8.40
2019-02-14T10:24:19.305Z,8.80
2019-02-14T10:26:47.215Z,9.53
2019-02-14T10:29:15.147Z,10.45
2019-02-14T10:31:43.060Z,10.13
2019-02-14T10:34:10.997Z,10.38
2019-02-14T10:36:38.924Z,10.58
2019-02-14T10:39:06.835Z,11.08
2019-02-14T10:41:34.764Z,11.55
2019-02-14T10:44:02.691Z,11.88
2019-02-14T10:46:30.619Z,11.80
2019-02-14T10:48:58.829Z,11.83
2019-02-14T10:51:26.759Z,12.75
2019-02-14T10:53:54.691Z,11.48
2019-02-14T10:56:22.620Z,11.08
2019-02-14T10:58:50.563Z,10.75
2019-02-14T11:01:18.486Z,11.30
2019-02-14T11:03:46.407Z,11.55
2019-02-14T11:06:14.375Z,12.55
2019-02-14T11:08:42.532Z,12.53
2019-02-14T11:11:10.451Z,11.45
2019-02-14T11:13:38.379Z,11.03
2019-02-14T11:16:06.632Z,11.35
2019-02-14T11:18:44.056Z,11.28
2019-02-14T11:21:05.284Z,12.40
2019-02-14T11:23:33.211Z,11.97
2019-02-14T11:26:01.131Z,11.53
2019-02-14T11:28:29.059Z,11.83
2019-02-14T11:30:56.987Z,10.28
2019-02-14T11:33:25.211Z,10.25
2019-02-14T11:35:53.488Z,10.15
2019-02-14T11:38:21.419Z,10.53
2019-02-14T11:40:49.345Z,10.18
2019-02-14T11:43:17.274Z,10.68
2019-02-14T11:45:45.485Z,11.12
2019-02-14T11:48:13.398Z,11.12
2019-02-14T11:50:41.330Z,10.85
2019-02-14T11:53:14.089Z,11.28
2019-02-14T11:55:39.423Z,12.85
2019-02-14T11:58:07.343Z,12.82
2019-02-14T12:00:35.580Z,12.20
2019-02-14T12:03:03.524Z,12.15
2019-02-14T12:05:31.438Z,11.68
2019-02-14T12:07:59.600Z,12.47
2019-02-14T12:10:27.879Z,12.65
2019-02-14T12:12:55.795Z,13.32
2019-02-14T12:15:23.716Z,12.95
2019-02-14T12:17:51.644Z,13.35
2019-02-14T12:20:19.875Z,13.93
2019-02-14T12:22:48.875Z,13.75
2019-02-14T12:25:27.348Z,14.38
2019-02-14T12:27:55.570Z,13.98
2019-02-14T12:30:23.480Z,14.55
2019-02-14T12:32:51.399Z,15.88
2019-02-14T12:35:19.589Z,15.05
2019-02-14T12:37:47.766Z,15.95
2019-02-14T12:40:15.712Z,15.50
2019-02-14T12:42:43.623Z,15.80
2019-02-14T12:45:20.466Z,15.43
2019-02-14T12:47:45.900Z,14.98
2019-02-14T12:50:14.079Z,15.13
2019-02-14T12:52:42.011Z,15.32
2019-02-14T12:55:10.228Z,15.58
2019-02-14T12:57:38.408Z,14.85
2019-02-14T13:00:10.948Z,16.37
2019-02-14T13:02:38.879Z,15.23
2019-02-14T13:05:07.471Z,16.30
2019-02-14T13:07:35.724Z,16.10
2019-02-14T13:10:05.750Z,16.48
2019-02-14T13:12:33.667Z,17.37
2019-02-14T13:15:01.601Z,17.25
2019-02-14T13:17:29.587Z,17.35
2019-02-14T13:19:57.851Z,17.02
2019-02-14T13:22:25.767Z,17.48
2019-02-14T13:24:53.707Z,17.48
2019-02-14T13:27:21.625Z,18.15
2019-02-14T13:29:49.549Z,17.85
2019-02-14T13:32:17.812Z,17.90
2019-02-14T13:34:45.731Z,17.37
2019-02-14T13:37:13.664Z,17.98
2019-02-14T13:39:41.583Z,17.95
2019-02-14T13:42:09.517Z,17.82
2019-02-14T13:44:37.444Z,16.80
2019-02-14T13:47:05.403Z,16.85
2019-02-14T13:49:33.339Z,16.57
2019-02-14T13:52:01.255Z,17.35
2019-02-14T13:54:29.184Z,16.70
2019-02-14T13:56:57.103Z,16.77
2019-02-14T13:59:25.317Z,16.65
2019-02-14T14:01:53.237Z,16.93
2019-02-14T14:04:21.467Z,17.52
2019-02-14T14:06:49.650Z,16.57
2019-02-14T14:09:17.575Z,15.72
2019-02-14T14:11:45.797Z,15.72
2019-02-14T14:14:13.947Z,15.93
2019-02-14T14:16:42.152Z,14.60
2019-02-14T14:19:10.073Z,14.40
2019-02-14T14:21:37.999Z,15.08
2019-02-14T14:24:05.919Z,15.68
2019-02-14T14:26:33.844Z,15.28
2019-02-14T14:29:01.773Z,14.80
2019-02-14T14:31:29.992Z,13.88
2019-02-14T14:33:57.944Z,14.50
2019-02-14T14:36:25.894Z,14.13
2019-02-14T14:38:53.819Z,13.90
2019-02-14T14:41:21.756Z,13.38
2019-02-14T14:43:51.596Z,13.35
2019-02-14T14:46:21.159Z,13.10
2019-02-14T14:48:49.095Z,12.93
2019-02-14T14:51:17.020Z,13.50
2019-02-14T14:53:44.964Z,12.05
2019-02-14T14:56:12.890Z,11.15
2019-02-14T14:58:40.820Z,10.65
2019-02-14T15:01:08.769Z,10.00
2019-02-14T15:03:36.683Z,9.48
2019-02-14T15:06:04.679Z,9.23
2019-02-14T15:08:32.591Z,9.25
2019-02-14T15:11:00.975Z,9.30
2019-02-14T15:13:28.901Z,9.25
2019-02-14T15:15:57.204Z,9.30
2019-02-14T15:18:25.132Z,10.45
2019-02-14T15:20:53.070Z,9.45
2019-02-14T15:23:20.987Z,11.25
2019-02-14T15:25:48.907Z,9.28
2019-02-14T15:28:17.475Z,8.70
2019-02-14T15:30:45.732Z,8.65
2019-02-14T15:33:14.143Z,8.85
2019-02-14T15:35:42.047Z,9.15
2019-02-14T15:38:11.874Z,8.23
2019-02-14T15:40:39.743Z,8.58
2019-02-14T15:43:07.978Z,9.03
2019-02-14T15:45:35.898Z,8.45
2019-02-14T15:48:03.987Z,7.85
2019-02-14T15:50:32.222Z,8.40
2019-02-14T15:53:00.587Z,7.75
2019-02-14T15:55:28.644Z,8.55
2019-02-14T15:57:56.561Z,9.65
2019-02-14T16:00:24.471Z,9.80
2019-02-14T16:02:52.639Z,9.80
2019-02-14T16:05:20.875Z,10.68
2019-02-14T16:07:48.795Z,12.58
2019-02-14T16:10:18.821Z,12.53
2019-02-14T16:12:47.040Z,13.62
2019-02-14T16:15:15.148Z,13.18
2019-02-14T16:17:43.391Z,13.43
2019-02-14T16:20:11.671Z,13.30
2019-02-14T16:22:40.273Z,14.55
2019-02-14T16:25:09.219Z,14.07
2019-02-14T16:27:37.152Z,13.32
2019-02-14T16:30:07.765Z,14.53
2019-02-14T16:32:36.342Z,14.20
2019-02-14T16:35:05.241Z,15.03
2019-02-14T16:37:33.170Z,15.30
2019-02-14T16:40:02.189Z,17.35
2019-02-14T16:42:31.935Z,17.48
2019-02-14T16:44:59.882Z,19.32
2019-02-14T16:47:27.811Z,18.37
2019-02-14T16:49:55.735Z,18.67
2019-02-14T16:52:23.659Z,19.15
2019-02-14T16:54:51.579Z,18.17
2019-02-14T16:57:19.537Z,17.10
2019-02-14T16:59:47.504Z,17.07
2019-02-14T17:02:15.436Z,18.27
2019-02-14T17:04:43.693Z,18.20
2019-02-14T17:07:11.623Z,17.75
2019-02-14T17:09:39.837Z,17.42
2019-02-14T17:12:08.016Z,14.47
2019-02-14T17:14:35.943Z,12.88
2019-02-14T17:17:04.163Z,11.57
2019-02-14T17:19:32.112Z,15.50
2019-02-14T17:22:00.036Z,11.38
2019-02-14T17:24:27.955Z,9.60
2019-02-14T17:26:55.871Z,9.00
2019-02-14T17:29:24.036Z,9.30
2019-02-14T17:31:52.932Z,9.70
2019-02-14T17:34:21.910Z,8.80
2019-02-14T17:36:50.100Z,8.70
2019-02-14T17:39:18.011Z,9.28
2019-02-14T17:41:45.939Z,10.45
2019-02-14T17:44:13.863Z,10.48
2019-02-14T17:46:42.091Z,9.38
2019-02-14T17:49:10.042Z,8.25
2019-02-14T17:51:37.959Z,7.20
2019-02-14T17:54:05.895Z,7.47
2019-02-14T17:56:33.804Z,8.63
2019-02-14T17:59:01.733Z,10.05
2019-02-14T18:01:29.655Z,11.38
2019-02-14T18:03:57.912Z,11.60
2019-02-14T18:06:25.839Z,10.88
2019-02-14T18:08:53.768Z,10.70
2019-02-14T18:11:21.695Z,10.50
2019-02-14T18:13:49.617Z,10.20
2019-02-14T18:16:17.879Z,9.35
2019-02-14T18:18:45.796Z,8.18
2019-02-14T18:21:14.028Z,7.85
2019-02-14T18:23:41.956Z,7.08
2019-02-14T18:26:10.184Z,7.78
2019-02-14T18:28:38.370Z,6.78
2019-02-14T18:31:06.280Z,7.05
2019-02-14T18:33:34.286Z,6.62
2019-02-14T18:36:02.203Z,7.72
2019-02-14T18:38:30.481Z,7.10
2019-02-14T18:41:04.210Z,6.78
2019-02-14T18:43:28.099Z,6.65
2019-02-14T18:45:56.018Z,6.67
2019-02-14T18:48:24.023Z,7.10
2019-02-14T18:50:52.012Z,7.55
2019-02-14T18:53:20.001Z,7.55
2019-02-14T18:55:48.216Z,8.65
2019-02-14T18:58:25.784Z,11.03
2019-02-14T19:00:45.759Z,12.60
2019-02-14T19:03:13.919Z,11.45
2019-02-14T19:05:41.844Z,10.88
2019-02-14T19:08:10.029Z,11.05
2019-02-14T19:10:37.955Z,10.13
2019-02-14T19:13:05.896Z,9.03
2019-02-14T19:15:33.815Z,9.10
2019-02-14T19:18:01.751Z,9.10
2019-02-14T19:20:29.739Z,8.58
2019-02-14T19:22:57.651Z,8.13
2019-02-14T19:25:25.572Z,9.03
2019-02-14T19:27:53.919Z,8.78
2019-02-14T19:30:21.834Z,9.70
2019-02-14T19:32:49.774Z,9.78
2019-02-14T19:35:23.067Z,9.13
2019-02-14T19:37:47.639Z,7.15
2019-02-14T19:40:15.555Z,6.47
2019-02-14T19:42:43.475Z,6.42
2019-02-14T19:45:11.779Z,6.10
2019-02-14T19:47:40.175Z,5.90
2019-02-14T19:50:09.627Z,6.10
2019-02-14T19:52:37.553Z,6.80
2019-02-14T19:55:06.435Z,8.08
2019-02-14T19:57:34.611Z,7.85
2019-02-14T20:00:02.808Z,10.40
2019-02-14T20:02:31.344Z,10.58
2019-02-14T20:04:59.319Z,13.35
2019-02-14T20:07:27.526Z,15.23
2019-02-14T20:09:55.441Z,14.20
2019-02-14T20:12:23.388Z,14.35
2019-02-14T20:14:51.307Z,14.83
2019-02-14T20:17:19.239Z,14.55
2019-02-14T20:19:47.170Z,11.97
2019-02-14T20:22:15.382Z,12.60
2019-02-14T20:24:43.313Z,11.83
2019-02-14T20:27:11.231Z,12.70
2019-02-14T20:29:39.159Z,11.93
2019-02-14T20:32:07.155Z,12.35
2019-02-14T20:34:35.439Z,12.47
2019-02-14T20:37:03.445Z,12.50
2019-02-14T20:39:31.359Z,11.48
2019-02-14T20:41:59.287Z,12.15
2019-02-14T20:44:27.233Z,11.35
2019-02-14T20:46:55.223Z,10.63
2019-02-14T20:49:23.779Z,9.20
2019-02-14T20:51:52.691Z,9.65
2019-02-14T20:54:20.606Z,9.45
2019-02-14T20:56:48.525Z,9.40
2019-02-14T20:59:16.452Z,10.13
2019-02-14T21:01:44.368Z,10.15
2019-02-14T21:04:12.296Z,9.28
2019-02-14T21:06:40.547Z,8.83
2019-02-14T21:09:08.471Z,8.03
2019-02-14T21:11:37.499Z,8.10
2019-02-14T21:14:05.427Z,7.83
2019-02-14T21:16:33.411Z,7.70
2019-02-14T21:19:01.337Z,8.10
2019-02-14T21:21:29.238Z,7.60
2019-02-14T21:23:57.167Z,9.40
2019-02-14T21:26:25.080Z,9.58
2019-02-14T21:28:52.995Z,9.55
2019-02-14T21:31:20.931Z,9.18
2019-02-14T21:33:48.843Z,8.65
2019-02-14T21:36:18.261Z,8.53
2019-02-14T21:38:46.244Z,9.65
2019-02-14T21:41:14.933Z,9.88
2019-02-14T21:43:43.591Z,10.43
2019-02-14T21:46:11.533Z,10.75
2019-02-14T21:48:39.505Z,12.47
2019-02-14T21:51:07.500Z,9.93
2019-02-14T21:53:35.491Z,7.65
2019-02-14T21:56:03.444Z,6.47
2019-02-14T21:58:31.579Z,6.42
2019-02-14T22:00:59.576Z,6.53
2019-02-14T22:03:27.486Z,5.92
2019-02-14T22:05:56.910Z,6.45
2019-02-14T22:08:26.244Z,12.35
2019-02-14T22:10:55.243Z,18.60
2019-02-14T22:13:24.777Z,13.55
2019-02-14T22:15:53.102Z,13.50
2019-02-14T22:18:21.044Z,8.73
2019-02-14T22:20:48.934Z,7.45
2019-02-14T22:23:16.880Z,6.40
2019-02-14T22:25:44.793Z,5.78
2019-02-14T22:28:12.711Z,5.70
2019-02-14T22:30:40.619Z,5.35
2019-02-14T22:33:08.532Z,4.87
2019-02-14T22:35:36.479Z,5.28
2019-02-14T22:38:04.440Z,6.45
2019-02-14T22:40:32.407Z,5.85
2019-02-14T22:43:00.307Z,5.78
2019-02-14T22:45:28.235Z,6.12
2019-02-14T22:47:56.151Z,6.70
2019-02-14T22:50:25.439Z,6.87
2019-02-14T22:52:53.615Z,6.25
2019-02-14T22:55:21.532Z,6.08
2019-02-14T22:57:49.453Z,6.08
2019-02-14T23:00:26.388Z,8.30
2019-02-14T23:02:55.934Z,11.50
2019-02-14T23:05:23.923Z,11.95
2019-02-14T23:07:51.863Z,9.43
2019-02-14T23:10:19.782Z,8.58
2019-02-14T23:12:55.485Z,7.37
2019-02-14T23:15:17.307Z,7.70
2019-02-14T23:17:46.294Z,6.90
2019-02-14T23:20:14.223Z,7.42
2019-02-14T23:22:42.139Z,7.67
2019-02-14T23:25:10.384Z,7.50
2019-02-14T23:27:38.304Z,6.67
2019-02-14T23:30:08.567Z,6.60
2019-02-14T23:32:36.748Z,6.40
2019-02-14T23:35:04.907Z,5.95
2019-02-14T23:37:32.823Z,5.60
2019-02-14T23:40:00.747Z,5.42
2019-02-14T23:42:28.665Z,4.92
2019-02-14T23:44:56.579Z,4.85
2019-02-14T23:47:24.492Z,4.80
2019-02-14T23:49:52.407Z,4.97
2019-02-14T23:52:20.335Z,5.35
2019-02-14T23:54:48.245Z,5.05
2019-02-14T23:57:16.163Z,4.90
2019-02-14T23:59:44.067Z,4.40
